Huvudsida
METAR-TAF:

METAR-TAF

Flygplatser :

Cagliari, Italien

latitud: 39-15N, longitud: 009-04E, höjd: 4 m

Aktuellt väderrapport

Denna rapport gjordes för 30 minuter sedan, klockan 14:20 UTC
Vind 11 kt från syd/sydost
Temperatur 30°C
Fuktighet 49%
Tryck 1019 hPa
Sikt 10 km eller mer
Inga moln under 1 500 m eller inga cumulonimbus

METAR: LIEE 261420Z 16011KT CAVOK 30/18 Q1019

Tid: 16:50 (14:50 UTC)

Väderprognos

Denna rapport gjordes för 3 timmar och 50 minuter sedan, klockan 11:00 UTC
Prognos gäller från 26 kl. 12 UTC till 27 kl. 12 UTC
Vind 12 kt från syd
Sikt 10 km eller mer
Inga moln under 1 500 m eller inga cumulonimbus
Blir
från 26 kl. 17 UTC till 26 kl. 19 UTC
Vind 4 kt varierande vindriktning
Blir
från 27 kl. 10 UTC till 27 kl. 12 UTC
Vind 12 kt från syd/sydost

TAF: LIEE 261100Z 2612/2712 17012KT CAVOK BECMG 2617/2619 VRB04KT BECMG 2710/2712 16012KT

Aktuella väderrapporter och prognoser från 4000 flygplatser (METAR- och TAF-rapporter).

De tillgängliga stationerna syns som gula och röda prickar på kartan.

För musen över prickarna för att se namnen på stationerna.

Klicka sedan för att få väderrapporter och prognoser.

För att ändra kartan: Klicka på de gröna knapparna med ett svart kors på för att zooma in; den gröna knappen med ett streck på för att zooma ut; eller på de gröna pilarna för angränsande kartor.


METAR-TAF: